UASS

Semipalatinsk Airport

Semey, Kazakhstan
TAF UASS 251100Z 2512/2521 30005G10MPS 9999 BKN030 BKN100 TEMPO 2512/2518 5000 -SHRA BKN020CB
Issued Valid From Valid To
Sep-25 @ 11:00 UTC
(6 hours ago)
Sep-25 @ 12:00 UTC
(5 hours ago)
Sep-25 @ 21:00 UTC
(in 4 hours)
Sep-25 @ 12:00 to Sep-25 @ 21:00
TAF UASS 251100Z 2512/2521 30005G10MPS 9999 BKN030 BKN100
Wind Visibility Clouds
300° at 10 knots
 Gusting to 19 knots
10,000+ meters
  • Broken at 3,000' AGL
  • Broken at 10,000' AGL
Temporary Sep-25 @ 12:00 to Sep-25 @ 18:00
TEMPO 2512/2518 5000 -SHRA BKN020CB
Visibility Clouds Conditions
5,005 meters
  • Broken at 2,000' AGL
  • Light Rain
TAF UASS 251100Z 2512/2521 30005G10MPS 9999 BKN030 BKN100 TEMPO 2512/2518 5000 -SHRA BKN020CB
Issued Sep-25 @ 11:00 UTC
(6 hours ago)
Valid From Sep-25 @ 12:00 UTC
(5 hours ago)
Valid To Sep-25 @ 21:00 UTC
(in 4 hours)
Sep-25 @ 12:00 - Sep-25 @ 21:00
Wind Visibility
300° at 10 knots
 Gusting to 19 knots
10,000+ meters
Clouds
  • Broken at 3,000' AGL
  • Broken at 10,000' AGL
Temporary Sep-25 @ 12:00 - Sep-25 @ 18:00
Clouds
  • Broken at 2,000' AGL
Conditions
  • Light Rain